sensor_id;sensor_type;location;lat;lon;timestamp;temperature;humidity
46730;DHT22;32476;50.002;11.854;2022-11-20T00:01:18;-3.60;99.90
46730;DHT22;32476;50.002;11.854;2022-11-20T00:03:47;-3.50;99.90
46730;DHT22;32476;50.002;11.854;2022-11-20T00:06:16;-3.50;99.90
46730;DHT22;32476;50.002;11.854;2022-11-20T00:08:43;-3.50;99.90
46730;DHT22;32476;50.002;11.854;2022-11-20T00:11:13;-3.50;99.90
46730;DHT22;32476;50.002;11.854;2022-11-20T00:13:51;-3.50;99.90
46730;DHT22;32476;50.002;11.854;2022-11-20T00:16:22;-3.50;99.90
46730;DHT22;32476;50.002;11.854;2022-11-20T00:18:50;-3.40;99.90
46730;DHT22;32476;50.002;11.854;2022-11-20T00:21:19;-3.50;99.90
46730;DHT22;32476;50.002;11.854;2022-11-20T00:23:50;-3.50;99.90
46730;DHT22;32476;50.002;11.854;2022-11-20T00:26:18;-3.40;99.90
46730;DHT22;32476;50.002;11.854;2022-11-20T00:28:50;-3.40;99.90
46730;DHT22;32476;50.002;11.854;2022-11-20T00:31:18;-3.40;99.90
46730;DHT22;32476;50.002;11.854;2022-11-20T00:33:45;-3.40;99.90
46730;DHT22;32476;50.002;11.854;2022-11-20T00:36:16;-3.50;99.90
46730;DHT22;32476;50.002;11.854;2022-11-20T00:38:45;-3.50;99.90
46730;DHT22;32476;50.002;11.854;2022-11-20T00:41:14;-3.40;99.90
46730;DHT22;32476;50.002;11.854;2022-11-20T00:43:41;-3.50;99.90
46730;DHT22;32476;50.002;11.854;2022-11-20T00:46:12;-3.40;99.90
46730;DHT22;32476;50.002;11.854;2022-11-20T00:48:42;-3.50;99.90
46730;DHT22;32476;50.002;11.854;2022-11-20T00:51:12;-3.50;99.90
46730;DHT22;32476;50.002;11.854;2022-11-20T00:53:39;-3.50;99.90
46730;DHT22;32476;50.002;11.854;2022-11-20T00:56:08;-3.40;99.90
46730;DHT22;32476;50.002;11.854;2022-11-20T00:58:39;-3.40;99.90
46730;DHT22;32476;50.002;11.854;2022-11-20T01:01:14;-3.40;99.90
46730;DHT22;32476;50.002;11.854;2022-11-20T01:03:46;-3.40;99.90
46730;DHT22;32476;50.002;11.854;2022-11-20T01:06:24;-3.30;99.90
46730;DHT22;32476;50.002;11.854;2022-11-20T01:08:57;-3.40;99.90
46730;DHT22;32476;50.002;11.854;2022-11-20T01:11:29;-3.40;99.90
46730;DHT22;32476;50.002;11.854;2022-11-20T01:13:59;-3.30;99.90
46730;DHT22;32476;50.002;11.854;2022-11-20T01:16:30;-3.50;99.90
46730;DHT22;32476;50.002;11.854;2022-11-20T01:19:01;-3.40;99.90
46730;DHT22;32476;50.002;11.854;2022-11-20T01:21:31;-3.40;99.90
46730;DHT22;32476;50.002;11.854;2022-11-20T01:24:04;-3.40;99.90
46730;DHT22;32476;50.002;11.854;2022-11-20T01:26:34;-3.50;99.90
46730;DHT22;32476;50.002;11.854;2022-11-20T01:29:04;-3.40;99.90
46730;DHT22;32476;50.002;11.854;2022-11-20T01:31:32;-3.50;99.90
46730;DHT22;32476;50.002;11.854;2022-11-20T01:34:02;-3.40;99.90
46730;DHT22;32476;50.002;11.854;2022-11-20T01:36:34;-3.40;99.90
46730;DHT22;32476;50.002;11.854;2022-11-20T01:39:07;-3.40;99.90
46730;DHT22;32476;50.002;11.854;2022-11-20T01:41:39;-3.30;99.90
46730;DHT22;32476;50.002;11.854;2022-11-20T01:47:40;-3.20;99.90
46730;DHT22;32476;50.002;11.854;2022-11-20T01:50:12;-3.20;99.90
46730;DHT22;32476;50.002;11.854;2022-11-20T01:52:46;-3.30;99.90
46730;DHT22;32476;50.002;11.854;2022-11-20T01:55:20;-3.30;99.90
46730;DHT22;32476;50.002;11.854;2022-11-20T01:57:49;-3.40;99.90
46730;DHT22;32476;50.002;11.854;2022-11-20T02:00:18;-3.40;99.90
46730;DHT22;32476;50.002;11.854;2022-11-20T02:02:54;-3.40;99.90
46730;DHT22;32476;50.002;11.854;2022-11-20T02:05:35;-3.50;99.90
46730;DHT22;32476;50.002;11.854;2022-11-20T02:08:05;-3.40;99.90
46730;DHT22;32476;50.002;11.854;2022-11-20T02:10:34;-3.30;99.90
46730;DHT22;32476;50.002;11.854;2022-11-20T02:13:00;-3.30;99.90
46730;DHT22;32476;50.002;11.854;2022-11-20T02:15:46;-3.30;99.90
46730;DHT22;32476;50.002;11.854;2022-11-20T02:18:16;-3.30;99.90
46730;DHT22;32476;50.002;11.854;2022-11-20T02:20:45;-3.30;99.90
46730;DHT22;32476;50.002;11.854;2022-11-20T02:23:31;-3.20;99.90
46730;DHT22;32476;50.002;11.854;2022-11-20T02:26:01;-3.30;99.90
46730;DHT22;32476;50.002;11.854;2022-11-20T02:28:30;-3.30;99.90
46730;DHT22;32476;50.002;11.854;2022-11-20T02:30:56;-3.30;99.90
46730;DHT22;32476;50.002;11.854;2022-11-20T02:33:22;-3.30;99.90
46730;DHT22;32476;50.002;11.854;2022-11-20T02:35:50;-3.30;99.90
46730;DHT22;32476;50.002;11.854;2022-11-20T02:38:16;-3.30;99.90
46730;DHT22;32476;50.002;11.854;2022-11-20T02:40:42;-3.30;99.90
46730;DHT22;32476;50.002;11.854;2022-11-20T02:43:10;-3.30;99.90
46730;DHT22;32476;50.002;11.854;2022-11-20T02:45:36;-3.30;99.90
46730;DHT22;32476;50.002;11.854;2022-11-20T02:48:02;-3.20;99.90
46730;DHT22;32476;50.002;11.854;2022-11-20T02:50:30;-3.20;99.90
46730;DHT22;32476;50.002;11.854;2022-11-20T02:52:56;-3.10;99.90
46730;DHT22;32476;50.002;11.854;2022-11-20T02:55:22;-3.20;99.90
46730;DHT22;32476;50.002;11.854;2022-11-20T02:57:49;-3.10;99.90
46730;DHT22;32476;50.002;11.854;2022-11-20T03:00:15;-3.10;99.90
46730;DHT22;32476;50.002;11.854;2022-11-20T03:02:42;-3.20;99.90
46730;DHT22;32476;50.002;11.854;2022-11-20T03:05:09;-3.20;99.90
46730;DHT22;32476;50.002;11.854;2022-11-20T03:07:35;-3.10;99.90
46730;DHT22;32476;50.002;11.854;2022-11-20T03:10:01;-3.10;99.90
46730;DHT22;32476;50.002;11.854;2022-11-20T03:12:29;-3.10;99.90
46730;DHT22;32476;50.002;11.854;2022-11-20T03:14:55;-3.00;99.90
46730;DHT22;32476;50.002;11.854;2022-11-20T03:17:21;-3.00;99.90
46730;DHT22;32476;50.002;11.854;2022-11-20T03:19:48;-3.00;99.90
46730;DHT22;32476;50.002;11.854;2022-11-20T03:22:14;-3.00;99.90
46730;DHT22;32476;50.002;11.854;2022-11-20T03:24:40;-3.10;99.90
46730;DHT22;32476;50.002;11.854;2022-11-20T03:27:07;-3.10;99.90
46730;DHT22;32476;50.002;11.854;2022-11-20T03:29:35;-3.00;99.90
46730;DHT22;32476;50.002;11.854;2022-11-20T03:32:01;-3.00;99.90
46730;DHT22;32476;50.002;11.854;2022-11-20T03:34:28;-3.00;99.90
46730;DHT22;32476;50.002;11.854;2022-11-20T03:36:54;-2.90;99.90
46730;DHT22;32476;50.002;11.854;2022-11-20T03:39:20;-2.90;99.90
46730;DHT22;32476;50.002;11.854;2022-11-20T03:41:47;-2.90;99.90
46730;DHT22;32476;50.002;11.854;2022-11-20T03:44:13;-2.90;99.90
46730;DHT22;32476;50.002;11.854;2022-11-20T03:46:39;-2.90;99.90
46730;DHT22;32476;50.002;11.854;2022-11-20T03:49:06;-2.90;99.90
46730;DHT22;32476;50.002;11.854;2022-11-20T03:51:34;-2.90;99.90
46730;DHT22;32476;50.002;11.854;2022-11-20T03:54:03;-2.80;99.90
46730;DHT22;32476;50.002;11.854;2022-11-20T03:56:35;-2.90;99.90
46730;DHT22;32476;50.002;11.854;2022-11-20T03:59:03;-2.90;99.90
46730;DHT22;32476;50.002;11.854;2022-11-20T04:01:32;-2.90;99.90
46730;DHT22;32476;50.002;11.854;2022-11-20T04:04:01;-2.90;99.90
46730;DHT22;32476;50.002;11.854;2022-11-20T04:06:30;-2.90;99.90
46730;DHT22;32476;50.002;11.854;2022-11-20T04:09:01;-2.90;99.90
46730;DHT22;32476;50.002;11.854;2022-11-20T04:11:29;-2.90;99.90
46730;DHT22;32476;50.002;11.854;2022-11-20T04:14:03;-2.90;99.90
46730;DHT22;32476;50.002;11.854;2022-11-20T04:16:35;-2.90;99.90
46730;DHT22;32476;50.002;11.854;2022-11-20T04:19:03;-2.80;99.90
46730;DHT22;32476;50.002;11.854;2022-11-20T04:21:32;-2.80;99.90
46730;DHT22;32476;50.002;11.854;2022-11-20T04:23:58;-2.80;99.90
46730;DHT22;32476;50.002;11.854;2022-11-20T04:26:26;-2.80;99.90
46730;DHT22;32476;50.002;11.854;2022-11-20T04:28:55;-2.80;99.90
46730;DHT22;32476;50.002;11.854;2022-11-20T04:31:23;-2.80;99.90
46730;DHT22;32476;50.002;11.854;2022-11-20T04:33:51;-2.80;99.90
46730;DHT22;32476;50.002;11.854;2022-11-20T04:38:57;-2.70;99.90
46730;DHT22;32476;50.002;11.854;2022-11-20T04:41:28;-2.60;99.90
46730;DHT22;32476;50.002;11.854;2022-11-20T04:43:57;-2.70;99.90
46730;DHT22;32476;50.002;11.854;2022-11-20T04:46:27;-2.60;99.90
46730;DHT22;32476;50.002;11.854;2022-11-20T04:48:54;-2.70;99.90
46730;DHT22;32476;50.002;11.854;2022-11-20T04:51:19;-2.60;99.90
46730;DHT22;32476;50.002;11.854;2022-11-20T04:53:47;-2.70;99.90
46730;DHT22;32476;50.002;11.854;2022-11-20T04:56:13;-2.60;99.90
46730;DHT22;32476;50.002;11.854;2022-11-20T04:58:39;-2.60;99.90
46730;DHT22;32476;50.002;11.854;2022-11-20T05:01:19;-2.60;99.90
46730;DHT22;32476;50.002;11.854;2022-11-20T05:03:47;-2.60;99.90
46730;DHT22;32476;50.002;11.854;2022-11-20T05:06:16;-2.60;99.90
46730;DHT22;32476;50.002;11.854;2022-11-20T05:08:43;-2.60;99.90
46730;DHT22;32476;50.002;11.854;2022-11-20T05:11:12;-2.60;99.90
46730;DHT22;32476;50.002;11.854;2022-11-20T05:13:41;-2.60;99.90
46730;DHT22;32476;50.002;11.854;2022-11-20T05:16:13;-2.60;99.90
46730;DHT22;32476;50.002;11.854;2022-11-20T05:18:45;-2.60;99.90
46730;DHT22;32476;50.002;11.854;2022-11-20T05:21:12;-2.60;99.90
46730;DHT22;32476;50.002;11.854;2022-11-20T05:23:39;-2.50;99.90
46730;DHT22;32476;50.002;11.854;2022-11-20T05:26:11;-2.60;99.90
46730;DHT22;32476;50.002;11.854;2022-11-20T05:28:41;-2.60;99.90
46730;DHT22;32476;50.002;11.854;2022-11-20T05:31:11;-2.50;99.90
46730;DHT22;32476;50.002;11.854;2022-11-20T05:33:41;-2.50;99.90
46730;DHT22;32476;50.002;11.854;2022-11-20T05:36:10;-2.50;99.90
46730;DHT22;32476;50.002;11.854;2022-11-20T05:38:37;-2.40;99.90
46730;DHT22;32476;50.002;11.854;2022-11-20T05:41:08;-2.40;99.90
46730;DHT22;32476;50.002;11.854;2022-11-20T05:43:44;-2.40;99.90
46730;DHT22;32476;50.002;11.854;2022-11-20T05:46:13;-2.40;99.90
46730;DHT22;32476;50.002;11.854;2022-11-20T05:48:41;-2.40;99.90
46730;DHT22;32476;50.002;11.854;2022-11-20T05:51:11;-2.40;99.90
46730;DHT22;32476;50.002;11.854;2022-11-20T05:53:38;-2.30;99.90
46730;DHT22;32476;50.002;11.854;2022-11-20T05:56:06;-2.30;99.90
46730;DHT22;32476;50.002;11.854;2022-11-20T05:58:37;-2.30;99.90
46730;DHT22;32476;50.002;11.854;2022-11-20T06:01:12;-2.30;99.90
46730;DHT22;32476;50.002;11.854;2022-11-20T06:03:51;-2.30;99.90
46730;DHT22;32476;50.002;11.854;2022-11-20T06:06:19;-2.30;99.90
46730;DHT22;32476;50.002;11.854;2022-11-20T06:08:45;-2.30;99.90
46730;DHT22;32476;50.002;11.854;2022-11-20T06:11:14;-2.30;99.90
46730;DHT22;32476;50.002;11.854;2022-11-20T06:13:40;-2.30;99.90
46730;DHT22;32476;50.002;11.854;2022-11-20T06:16:07;-2.30;99.90
46730;DHT22;32476;50.002;11.854;2022-11-20T06:18:35;-2.30;99.90
46730;DHT22;32476;50.002;11.854;2022-11-20T06:21:07;-2.30;99.90
46730;DHT22;32476;50.002;11.854;2022-11-20T06:23:39;-2.30;99.90
46730;DHT22;32476;50.002;11.854;2022-11-20T06:26:08;-2.30;99.90
46730;DHT22;32476;50.002;11.854;2022-11-20T06:28:43;-2.20;99.90
46730;DHT22;32476;50.002;11.854;2022-11-20T06:31:12;-2.20;99.90
46730;DHT22;32476;50.002;11.854;2022-11-20T06:33:40;-2.20;99.90
46730;DHT22;32476;50.002;11.854;2022-11-20T06:36:10;-2.10;99.90
46730;DHT22;32476;50.002;11.854;2022-11-20T06:38:38;-2.20;99.90
46730;DHT22;32476;50.002;11.854;2022-11-20T06:41:05;-2.10;99.90
46730;DHT22;32476;50.002;11.854;2022-11-20T06:43:33;-2.10;99.90
46730;DHT22;32476;50.002;11.854;2022-11-20T06:45:59;-2.10;99.90
46730;DHT22;32476;50.002;11.854;2022-11-20T06:48:29;-2.10;99.90
46730;DHT22;32476;50.002;11.854;2022-11-20T06:50:57;-2.00;99.90
46730;DHT22;32476;50.002;11.854;2022-11-20T06:53:23;-2.00;99.90
46730;DHT22;32476;50.002;11.854;2022-11-20T06:55:50;-2.00;99.90
46730;DHT22;32476;50.002;11.854;2022-11-20T06:58:18;-2.00;99.90
46730;DHT22;32476;50.002;11.854;2022-11-20T07:00:44;-2.00;99.90
46730;DHT22;32476;50.002;11.854;2022-11-20T07:03:11;-1.90;99.90
46730;DHT22;32476;50.002;11.854;2022-11-20T07:05:39;-1.90;99.90
46730;DHT22;32476;50.002;11.854;2022-11-20T07:08:06;-1.90;99.90
46730;DHT22;32476;50.002;11.854;2022-11-20T07:10:33;-1.90;99.90
46730;DHT22;32476;50.002;11.854;2022-11-20T07:13:01;-1.90;99.90
46730;DHT22;32476;50.002;11.854;2022-11-20T07:15:27;-1.80;99.90
46730;DHT22;32476;50.002;11.854;2022-11-20T07:17:53;-1.80;99.90
46730;DHT22;32476;50.002;11.854;2022-11-20T07:20:21;-1.80;99.90
46730;DHT22;32476;50.002;11.854;2022-11-20T07:22:47;-1.80;99.90
46730;DHT22;32476;50.002;11.854;2022-11-20T07:25:19;-1.80;99.90
46730;DHT22;32476;50.002;11.854;2022-11-20T07:27:46;-1.80;99.90
46730;DHT22;32476;50.002;11.854;2022-11-20T07:30:13;-1.80;99.90
46730;DHT22;32476;50.002;11.854;2022-11-20T07:32:40;-1.70;99.90
46730;DHT22;32476;50.002;11.854;2022-11-20T07:35:07;-1.70;99.90
46730;DHT22;32476;50.002;11.854;2022-11-20T07:37:34;-1.70;99.90
46730;DHT22;32476;50.002;11.854;2022-11-20T07:40:00;-1.60;99.90
46730;DHT22;32476;50.002;11.854;2022-11-20T07:42:28;-1.60;99.90
46730;DHT22;32476;50.002;11.854;2022-11-20T07:44:53;-1.60;99.90
46730;DHT22;32476;50.002;11.854;2022-11-20T07:47:19;-1.60;99.90
46730;DHT22;32476;50.002;11.854;2022-11-20T07:49:47;-1.60;99.90
46730;DHT22;32476;50.002;11.854;2022-11-20T07:52:13;-1.60;99.90
46730;DHT22;32476;50.002;11.854;2022-11-20T07:54:39;-1.50;99.90
46730;DHT22;32476;50.002;11.854;2022-11-20T07:57:07;-1.50;99.90
46730;DHT22;32476;50.002;11.854;2022-11-20T07:59:33;-1.40;99.90
46730;DHT22;32476;50.002;11.854;2022-11-20T08:01:58;-1.40;99.90
46730;DHT22;32476;50.002;11.854;2022-11-20T08:04:26;-1.40;99.90
46730;DHT22;32476;50.002;11.854;2022-11-20T08:06:52;-1.40;99.90
46730;DHT22;32476;50.002;11.854;2022-11-20T08:09:18;-1.30;99.90
46730;DHT22;32476;50.002;11.854;2022-11-20T08:11:46;-1.20;99.90
46730;DHT22;32476;50.002;11.854;2022-11-20T08:14:30;-1.10;99.90
46730;DHT22;32476;50.002;11.854;2022-11-20T08:16:58;-1.00;99.90
46730;DHT22;32476;50.002;11.854;2022-11-20T08:19:25;-1.10;99.90
46730;DHT22;32476;50.002;11.854;2022-11-20T08:21:51;-1.10;99.90
46730;DHT22;32476;50.002;11.854;2022-11-20T08:24:18;-1.10;99.90
46730;DHT22;32476;50.002;11.854;2022-11-20T08:26:44;-1.10;99.90
46730;DHT22;32476;50.002;11.854;2022-11-20T08:29:10;-1.10;99.90
46730;DHT22;32476;50.002;11.854;2022-11-20T08:31:38;-1.00;99.90
46730;DHT22;32476;50.002;11.854;2022-11-20T08:34:04;-1.00;99.90
46730;DHT22;32476;50.002;11.854;2022-11-20T08:36:33;-1.00;99.90
46730;DHT22;32476;50.002;11.854;2022-11-20T08:39:02;-0.90;99.90
46730;DHT22;32476;50.002;11.854;2022-11-20T08:41:29;-0.80;99.90
46730;DHT22;32476;50.002;11.854;2022-11-20T08:44:06;-0.60;99.90
46730;DHT22;32476;50.002;11.854;2022-11-20T08:46:37;-0.70;99.90
46730;DHT22;32476;50.002;11.854;2022-11-20T08:49:09;-0.60;99.90
46730;DHT22;32476;50.002;11.854;2022-11-20T08:51:38;-0.60;99.90
46730;DHT22;32476;50.002;11.854;2022-11-20T08:54:05;-0.50;99.90
46730;DHT22;32476;50.002;11.854;2022-11-20T08:56:32;-0.40;99.90
46730;DHT22;32476;50.002;11.854;2022-11-20T08:58:59;-0.30;99.90
46730;DHT22;32476;50.002;11.854;2022-11-20T09:01:26;-0.40;99.90
46730;DHT22;32476;50.002;11.854;2022-11-20T09:03:57;-0.40;99.90
46730;DHT22;32476;50.002;11.854;2022-11-20T09:06:25;-0.40;99.90
46730;DHT22;32476;50.002;11.854;2022-11-20T09:08:52;-0.40;99.90
46730;DHT22;32476;50.002;11.854;2022-11-20T09:11:19;-0.40;99.90
46730;DHT22;32476;50.002;11.854;2022-11-20T09:13:46;-0.30;99.90
46730;DHT22;32476;50.002;11.854;2022-11-20T09:16:12;-0.20;99.90
46730;DHT22;32476;50.002;11.854;2022-11-20T09:18:38;-0.10;99.90
46730;DHT22;32476;50.002;11.854;2022-11-20T09:21:09;0.00;99.90
46730;DHT22;32476;50.002;11.854;2022-11-20T09:23:37;0.10;99.90
46730;DHT22;32476;50.002;11.854;2022-11-20T09:26:06;0.10;99.90
46730;DHT22;32476;50.002;11.854;2022-11-20T09:28:40;0.00;99.90
46730;DHT22;32476;50.002;11.854;2022-11-20T09:31:17;0.00;99.90
46730;DHT22;32476;50.002;11.854;2022-11-20T09:33:49;-0.10;99.90
46730;DHT22;32476;50.002;11.854;2022-11-20T09:36:15;-0.20;99.90
46730;DHT22;32476;50.002;11.854;2022-11-20T09:38:42;-0.40;99.90
46730;DHT22;32476;50.002;11.854;2022-11-20T09:47:10;-0.60;99.90
46730;DHT22;32476;50.002;11.854;2022-11-20T09:50:07;-0.50;99.90
46730;DHT22;32476;50.002;11.854;2022-11-20T09:55:47;-0.60;99.90
46730;DHT22;32476;50.002;11.854;2022-11-20T09:58:27;-0.60;99.90
46730;DHT22;32476;50.002;11.854;2022-11-20T10:01:05;-0.50;99.90
46730;DHT22;32476;50.002;11.854;2022-11-20T10:04:11;-0.40;99.90
46730;DHT22;32476;50.002;11.854;2022-11-20T10:06:50;-0.30;99.90
46730;DHT22;32476;50.002;11.854;2022-11-20T10:09:27;-0.30;99.90
46730;DHT22;32476;50.002;11.854;2022-11-20T10:12:12;-0.50;99.90
46730;DHT22;32476;50.002;11.854;2022-11-20T10:15:21;-0.40;99.90
46730;DHT22;32476;50.002;11.854;2022-11-20T10:18:09;-0.30;99.90
46730;DHT22;32476;50.002;11.854;2022-11-20T10:24:08;0.00;99.90
46730;DHT22;32476;50.002;11.854;2022-11-20T10:30:19;0.00;99.90
46730;DHT22;32476;50.002;11.854;2022-11-20T10:32:54;0.00;99.90
46730;DHT22;32476;50.002;11.854;2022-11-20T10:35:43;0.10;99.90
46730;DHT22;32476;50.002;11.854;2022-11-20T10:38:30;0.10;99.90
46730;DHT22;32476;50.002;11.854;2022-11-20T10:41:02;0.10;99.90
46730;DHT22;32476;50.002;11.854;2022-11-20T10:43:52;0.20;99.90
46730;DHT22;32476;50.002;11.854;2022-11-20T10:46:23;0.20;99.90
46730;DHT22;32476;50.002;11.854;2022-11-20T10:48:51;0.30;99.90
46730;DHT22;32476;50.002;11.854;2022-11-20T10:54:31;0.10;99.90
46730;DHT22;32476;50.002;11.854;2022-11-20T10:57:17;0.20;99.90
46730;DHT22;32476;50.002;11.854;2022-11-20T11:02:46;0.10;99.90
46730;DHT22;32476;50.002;11.854;2022-11-20T11:07:58;0.20;99.90
46730;DHT22;32476;50.002;11.854;2022-11-20T11:10:39;0.20;99.90
46730;DHT22;32476;50.002;11.854;2022-11-20T11:13:28;0.20;99.90
46730;DHT22;32476;50.002;11.854;2022-11-20T11:15:57;0.30;99.90
46730;DHT22;32476;50.002;11.854;2022-11-20T11:18:28;0.30;99.90
46730;DHT22;32476;50.002;11.854;2022-11-20T11:21:00;0.30;99.90
46730;DHT22;32476;50.002;11.854;2022-11-20T11:23:39;0.30;99.90
46730;DHT22;32476;50.002;11.854;2022-11-20T11:26:24;0.40;99.90
46730;DHT22;32476;50.002;11.854;2022-11-20T11:29:01;0.40;99.90
46730;DHT22;32476;50.002;11.854;2022-11-20T11:31:32;0.50;99.90
46730;DHT22;32476;50.002;11.854;2022-11-20T11:34:11;0.30;99.90
46730;DHT22;32476;50.002;11.854;2022-11-20T11:36:40;0.40;99.90
46730;DHT22;32476;50.002;11.854;2022-11-20T11:39:18;0.30;99.90
46730;DHT22;32476;50.002;11.854;2022-11-20T11:41:47;0.30;99.90
46730;DHT22;32476;50.002;11.854;2022-11-20T11:44:20;0.30;99.90
46730;DHT22;32476;50.002;11.854;2022-11-20T11:47:46;0.30;99.90
46730;DHT22;32476;50.002;11.854;2022-11-20T11:50:14;0.30;99.90
46730;DHT22;32476;50.002;11.854;2022-11-20T11:53:03;0.20;99.90
46730;DHT22;32476;50.002;11.854;2022-11-20T11:55:58;0.30;99.90
46730;DHT22;32476;50.002;11.854;2022-11-20T11:58:48;0.20;99.90
46730;DHT22;32476;50.002;11.854;2022-11-20T12:01:57;0.40;99.90
46730;DHT22;32476;50.002;11.854;2022-11-20T12:09:54;0.60;99.90
46730;DHT22;32476;50.002;11.854;2022-11-20T12:12:32;0.50;99.90
46730;DHT22;32476;50.002;11.854;2022-11-20T12:15:06;0.70;99.90
46730;DHT22;32476;50.002;11.854;2022-11-20T12:17:36;0.60;99.90
46730;DHT22;32476;50.002;11.854;2022-11-20T12:20:15;0.50;99.90
46730;DHT22;32476;50.002;11.854;2022-11-20T12:22:55;0.50;99.90
46730;DHT22;32476;50.002;11.854;2022-11-20T12:25:36;0.60;99.90
46730;DHT22;32476;50.002;11.854;2022-11-20T12:28:31;0.70;99.90
46730;DHT22;32476;50.002;11.854;2022-11-20T12:33:57;0.50;99.90
46730;DHT22;32476;50.002;11.854;2022-11-20T12:36:44;0.40;99.90
46730;DHT22;32476;50.002;11.854;2022-11-20T12:39:30;0.50;99.90
46730;DHT22;32476;50.002;11.854;2022-11-20T12:42:38;0.40;99.90
46730;DHT22;32476;50.002;11.854;2022-11-20T12:45:56;0.40;99.90
46730;DHT22;32476;50.002;11.854;2022-11-20T12:48:52;0.30;99.90
46730;DHT22;32476;50.002;11.854;2022-11-20T12:51:39;0.40;99.90
46730;DHT22;32476;50.002;11.854;2022-11-20T12:57:28;0.30;99.90
46730;DHT22;32476;50.002;11.854;2022-11-20T13:00:22;0.30;99.90
46730;DHT22;32476;50.002;11.854;2022-11-20T13:05:55;0.30;99.90
46730;DHT22;32476;50.002;11.854;2022-11-20T13:08:55;0.30;99.90
46730;DHT22;32476;50.002;11.854;2022-11-20T13:11:34;0.30;99.90
46730;DHT22;32476;50.002;11.854;2022-11-20T13:14:11;0.40;99.90
46730;DHT22;32476;50.002;11.854;2022-11-20T13:19:26;0.30;99.90
46730;DHT22;32476;50.002;11.854;2022-11-20T13:21:55;0.30;99.90
46730;DHT22;32476;50.002;11.854;2022-11-20T13:24:22;0.40;99.90
46730;DHT22;32476;50.002;11.854;2022-11-20T13:27:17;0.20;99.90
46730;DHT22;32476;50.002;11.854;2022-11-20T13:30:20;0.10;99.90
46730;DHT22;32476;50.002;11.854;2022-11-20T13:32:56;0.00;99.90
46730;DHT22;32476;50.002;11.854;2022-11-20T13:35:42;0.00;99.90
46730;DHT22;32476;50.002;11.854;2022-11-20T13:38:13;0.10;99.90
46730;DHT22;32476;50.002;11.854;2022-11-20T13:43:37;0.00;99.90
46730;DHT22;32476;50.002;11.854;2022-11-20T13:46:08;0.00;99.90
46730;DHT22;32476;50.002;11.854;2022-11-20T13:48:40;0.00;99.90
46730;DHT22;32476;50.002;11.854;2022-11-20T14:02:16;0.00;99.90
46730;DHT22;32476;50.002;11.854;2022-11-20T14:04:47;-0.10;99.90
46730;DHT22;32476;50.002;11.854;2022-11-20T14:07:18;0.00;99.90
46730;DHT22;32476;50.002;11.854;2022-11-20T14:10:05;-0.10;99.90
46730;DHT22;32476;50.002;11.854;2022-11-20T14:12:33;-0.10;99.90
46730;DHT22;32476;50.002;11.854;2022-11-20T14:15:00;-0.10;99.90
46730;DHT22;32476;50.002;11.854;2022-11-20T14:20:06;-0.20;99.90
46730;DHT22;32476;50.002;11.854;2022-11-20T14:22:36;-0.30;99.90
46730;DHT22;32476;50.002;11.854;2022-11-20T14:25:24;-0.30;99.90
46730;DHT22;32476;50.002;11.854;2022-11-20T14:27:57;-0.30;99.90
46730;DHT22;32476;50.002;11.854;2022-11-20T14:30:28;-0.30;99.90
46730;DHT22;32476;50.002;11.854;2022-11-20T14:33:03;-0.30;99.90
46730;DHT22;32476;50.002;11.854;2022-11-20T14:35:40;-0.20;99.90
46730;DHT22;32476;50.002;11.854;2022-11-20T14:38:15;-0.20;99.90
46730;DHT22;32476;50.002;11.854;2022-11-20T14:40:44;-0.20;99.90
46730;DHT22;32476;50.002;11.854;2022-11-20T14:43:26;-0.20;99.90
46730;DHT22;32476;50.002;11.854;2022-11-20T14:46:08;-0.20;99.90
46730;DHT22;32476;50.002;11.854;2022-11-20T14:48:53;-0.20;99.90
46730;DHT22;32476;50.002;11.854;2022-11-20T14:51:32;-0.20;99.90
46730;DHT22;32476;50.002;11.854;2022-11-20T14:57:02;-0.20;99.90
46730;DHT22;32476;50.002;11.854;2022-11-20T14:59:34;-0.20;99.90
46730;DHT22;32476;50.002;11.854;2022-11-20T15:02:10;-0.30;99.90
46730;DHT22;32476;50.002;11.854;2022-11-20T15:04:50;-0.30;99.90
46730;DHT22;32476;50.002;11.854;2022-11-20T15:07:27;-0.30;99.90
46730;DHT22;32476;50.002;11.854;2022-11-20T15:10:05;-0.30;99.90
46730;DHT22;32476;50.002;11.854;2022-11-20T15:12:38;-0.40;99.90
46730;DHT22;32476;50.002;11.854;2022-11-20T15:15:08;-0.40;99.90
46730;DHT22;32476;50.002;11.854;2022-11-20T15:17:38;-0.30;99.90
46730;DHT22;32476;50.002;11.854;2022-11-20T15:20:13;-0.40;99.90
46730;DHT22;32476;50.002;11.854;2022-11-20T15:22:42;-0.40;99.90
46730;DHT22;32476;50.002;11.854;2022-11-20T15:25:12;-0.50;99.90
46730;DHT22;32476;50.002;11.854;2022-11-20T15:27:44;-0.40;99.90
46730;DHT22;32476;50.002;11.854;2022-11-20T15:30:19;-0.50;99.90
46730;DHT22;32476;50.002;11.854;2022-11-20T15:32:47;-0.50;99.90
46730;DHT22;32476;50.002;11.854;2022-11-20T15:35:14;-0.50;99.90
46730;DHT22;32476;50.002;11.854;2022-11-20T15:37:41;-0.50;99.90
46730;DHT22;32476;50.002;11.854;2022-11-20T15:40:09;-0.50;99.90
46730;DHT22;32476;50.002;11.854;2022-11-20T15:42:35;-0.50;99.90
46730;DHT22;32476;50.002;11.854;2022-11-20T15:45:01;-0.50;99.90
46730;DHT22;32476;50.002;11.854;2022-11-20T15:47:32;-0.50;99.90
46730;DHT22;32476;50.002;11.854;2022-11-20T15:50:01;-0.50;99.90
46730;DHT22;32476;50.002;11.854;2022-11-20T15:52:27;-0.60;99.90
46730;DHT22;32476;50.002;11.854;2022-11-20T15:54:54;-0.60;99.90
46730;DHT22;32476;50.002;11.854;2022-11-20T15:57:20;-0.60;99.90
46730;DHT22;32476;50.002;11.854;2022-11-20T15:59:46;-0.70;99.90
46730;DHT22;32476;50.002;11.854;2022-11-20T16:02:15;-0.70;99.90
46730;DHT22;32476;50.002;11.854;2022-11-20T16:04:41;-0.70;99.90
46730;DHT22;32476;50.002;11.854;2022-11-20T16:07:08;-0.70;99.90
46730;DHT22;32476;50.002;11.854;2022-11-20T16:09:35;-0.70;99.90
46730;DHT22;32476;50.002;11.854;2022-11-20T16:12:01;-0.70;99.90
46730;DHT22;32476;50.002;11.854;2022-11-20T16:14:27;-0.70;99.90
46730;DHT22;32476;50.002;11.854;2022-11-20T16:17:13;-0.80;99.90
46730;DHT22;32476;50.002;11.854;2022-11-20T16:19:39;-0.80;99.90
46730;DHT22;32476;50.002;11.854;2022-11-20T16:22:05;-0.80;99.90
46730;DHT22;32476;50.002;11.854;2022-11-20T16:24:33;-0.80;99.90
46730;DHT22;32476;50.002;11.854;2022-11-20T16:26:59;-0.80;99.90
46730;DHT22;32476;50.002;11.854;2022-11-20T16:29:25;-0.80;99.90
46730;DHT22;32476;50.002;11.854;2022-11-20T16:31:52;-0.80;99.90
46730;DHT22;32476;50.002;11.854;2022-11-20T16:34:18;-0.80;99.90
46730;DHT22;32476;50.002;11.854;2022-11-20T16:36:44;-0.80;99.90
46730;DHT22;32476;50.002;11.854;2022-11-20T16:39:12;-0.80;99.90
46730;DHT22;32476;50.002;11.854;2022-11-20T16:41:39;-0.80;99.90
46730;DHT22;32476;50.002;11.854;2022-11-20T16:44:09;-0.80;99.90
46730;DHT22;32476;50.002;11.854;2022-11-20T16:46:38;-0.80;99.90
46730;DHT22;32476;50.002;11.854;2022-11-20T16:49:08;-0.80;99.90
46730;DHT22;32476;50.002;11.854;2022-11-20T16:51:38;-0.80;99.90
46730;DHT22;32476;50.002;11.854;2022-11-20T16:54:06;-0.80;99.90
46730;DHT22;32476;50.002;11.854;2022-11-20T16:56:32;-0.90;99.90